createdAt,value
2023-04-15T00:01:19.849Z,51.09
2023-04-15T00:03:48.195Z,51.16
2023-04-15T00:06:16.376Z,51.60
2023-04-15T00:08:43.967Z,52.36
2023-04-15T00:11:12.724Z,52.83
2023-04-15T00:13:40.458Z,51.97
2023-04-15T00:16:08.724Z,51.67
2023-04-15T00:18:36.703Z,52.04
2023-04-15T00:21:05.184Z,53.75
2023-04-15T00:23:33.137Z,53.77
2023-04-15T00:26:01.091Z,53.66
2023-04-15T00:28:29.745Z,53.70
2023-04-15T00:30:58.647Z,54.04
2023-04-15T00:33:26.335Z,54.90
2023-04-15T00:35:54.463Z,55.78
2023-04-15T00:38:22.050Z,56.21
2023-04-15T00:40:50.346Z,55.70
2023-04-15T00:43:17.914Z,55.83
2023-04-15T00:45:47.500Z,56.28
2023-04-15T00:48:16.634Z,56.96
2023-04-15T00:50:44.534Z,56.73
2023-04-15T00:53:12.587Z,56.82
2023-04-15T00:55:40.567Z,56.56
2023-04-15T00:58:08.251Z,57.24
2023-04-15T01:00:36.976Z,58.24
2023-04-15T01:03:04.617Z,58.79
2023-04-15T01:05:32.635Z,58.55
2023-04-15T01:08:00.242Z,58.22
2023-04-15T01:10:28.686Z,58.73
2023-04-15T01:12:56.199Z,58.88
2023-04-15T01:15:24.381Z,60.19
2023-04-15T01:17:52.114Z,60.14
2023-04-15T01:20:20.515Z,60.68
2023-04-15T01:22:48.933Z,61.67
2023-04-15T01:25:20.438Z,62.11
2023-04-15T01:27:48.515Z,62.17
2023-04-15T01:30:17.700Z,62.80
2023-04-15T01:32:45.358Z,61.51
2023-04-15T01:35:13.525Z,61.46
2023-04-15T01:37:41.305Z,62.04
2023-04-15T01:40:09.394Z,62.50
2023-04-15T01:42:37.672Z,62.61
2023-04-15T01:45:07.402Z,63.14
2023-04-15T01:47:35.079Z,62.89
2023-04-15T01:50:03.221Z,63.00
2023-04-15T01:52:30.738Z,63.39
2023-04-15T01:54:58.727Z,62.98
2023-04-15T01:57:26.638Z,63.23
2023-04-15T01:59:54.628Z,63.00
2023-04-15T02:02:22.561Z,62.97
2023-04-15T02:04:50.676Z,62.47
2023-04-15T02:07:18.438Z,62.24
2023-04-15T02:09:46.412Z,63.21
2023-04-15T02:12:14.399Z,63.15
2023-04-15T02:14:42.362Z,63.68
2023-04-15T02:17:09.993Z,63.74
2023-04-15T02:19:37.909Z,64.39
2023-04-15T02:22:05.589Z,63.44
2023-04-15T02:24:33.499Z,62.75
2023-04-15T02:27:02.281Z,62.62
2023-04-15T02:29:32.508Z,62.44
2023-04-15T02:32:01.931Z,61.33
2023-04-15T02:34:29.942Z,60.14
2023-04-15T02:36:59.237Z,60.22
2023-04-15T02:39:27.616Z,59.17
2023-04-15T02:41:55.553Z,59.02
2023-04-15T02:44:25.250Z,59.02
2023-04-15T02:46:58.604Z,58.56
2023-04-15T02:49:30.080Z,59.73
2023-04-15T02:51:58.409Z,59.39
2023-04-15T02:54:28.917Z,60.01
2023-04-15T02:56:56.867Z,60.13
2023-04-15T02:59:24.814Z,59.78
2023-04-15T03:01:52.689Z,58.71
2023-04-15T03:04:21.124Z,60.07
2023-04-15T03:06:48.745Z,61.79
2023-04-15T03:09:16.744Z,63.50
2023-04-15T03:11:44.605Z,62.35
2023-04-15T03:14:12.596Z,62.55
2023-04-15T03:16:43.866Z,63.11
2023-04-15T03:19:12.418Z,63.41
2023-04-15T03:21:42.876Z,64.15
2023-04-15T03:24:10.882Z,64.33
2023-04-15T03:26:38.780Z,64.27
2023-04-15T03:29:12.870Z,64.16
2023-04-15T03:31:42.159Z,64.12
2023-04-15T03:34:10.218Z,64.33
2023-04-15T03:36:38.307Z,65.09
2023-04-15T03:39:06.258Z,64.06
2023-04-15T03:41:33.975Z,64.43
2023-04-15T03:44:01.987Z,64.38
2023-04-15T03:46:29.657Z,64.61
2023-04-15T03:48:57.714Z,63.98
2023-04-15T03:51:25.359Z,64.88
2023-04-15T03:53:53.238Z,64.52
2023-04-15T03:56:20.739Z,64.30
2023-04-15T03:58:48.587Z,63.55
2023-04-15T04:01:16.701Z,62.79
2023-04-15T04:03:44.652Z,62.85
2023-04-15T04:06:12.909Z,63.41
2023-04-15T04:08:41.175Z,62.33
2023-04-15T04:11:08.788Z,63.91
2023-04-15T04:13:36.813Z,64.03
2023-04-15T04:16:05.129Z,64.80
2023-04-15T04:18:33.368Z,65.55
2023-04-15T04:21:01.334Z,65.38
2023-04-15T04:23:29.435Z,65.49
2023-04-15T04:25:57.040Z,66.49
2023-04-15T04:28:24.946Z,66.19
2023-04-15T04:30:52.709Z,66.49
2023-04-15T04:33:20.982Z,66.94
2023-04-15T04:35:48.599Z,66.70
2023-04-15T04:38:16.554Z,67.05
2023-04-15T04:40:44.398Z,67.09
2023-04-15T04:43:12.895Z,66.60
2023-04-15T04:45:40.727Z,65.75
2023-04-15T04:48:09.052Z,66.10
2023-04-15T04:50:37.229Z,65.61
2023-04-15T04:53:05.229Z,65.54
2023-04-15T04:55:32.804Z,66.56
2023-04-15T04:58:00.772Z,66.49
2023-04-15T05:00:28.359Z,65.06
2023-04-15T05:02:56.752Z,64.06
2023-04-15T05:05:24.511Z,64.26
2023-04-15T05:07:52.722Z,63.23
2023-04-15T05:10:20.371Z,63.00
2023-04-15T05:12:48.331Z,62.85
2023-04-15T05:15:16.046Z,62.64
2023-04-15T05:17:45.020Z,63.21
2023-04-15T05:20:12.944Z,62.02
2023-04-15T05:22:41.105Z,62.42
2023-04-15T05:25:08.984Z,62.69
2023-04-15T05:27:37.010Z,62.89
2023-04-15T05:30:04.796Z,61.10
2023-04-15T05:32:32.781Z,61.74
2023-04-15T05:35:00.693Z,61.63
2023-04-15T05:37:28.687Z,60.31
2023-04-15T05:39:57.140Z,61.03
2023-04-15T05:42:25.248Z,59.78
2023-04-15T05:44:52.899Z,60.88
2023-04-15T05:47:20.866Z,60.44
2023-04-15T05:49:48.454Z,59.67
2023-04-15T05:52:16.893Z,58.99
2023-04-15T05:54:44.528Z,58.94
2023-04-15T05:57:12.493Z,58.35
2023-04-15T05:59:40.075Z,58.49
2023-04-15T06:02:08.031Z,58.92
2023-04-15T06:04:35.812Z,58.43
2023-04-15T06:07:03.805Z,57.57
2023-04-15T06:09:31.365Z,57.83
2023-04-15T06:11:59.295Z,57.00
2023-04-15T06:14:26.942Z,56.26
2023-04-15T06:16:54.889Z,57.25
2023-04-15T06:19:22.464Z,55.79
2023-04-15T06:21:50.589Z,55.63
2023-04-15T06:24:18.307Z,55.41
2023-04-15T06:26:46.421Z,54.79
2023-04-15T06:29:14.383Z,54.07
2023-04-15T06:31:42.283Z,53.33
2023-04-15T06:34:09.878Z,52.70
2023-04-15T06:36:37.833Z,52.69
2023-04-15T06:39:05.410Z,51.33
2023-04-15T06:41:34.448Z,51.30
2023-04-15T06:44:02.140Z,50.73
2023-04-15T06:46:30.084Z,50.38
2023-04-15T06:48:57.676Z,50.00
2023-04-15T06:51:26.735Z,49.76
2023-04-15T06:53:54.663Z,49.13
2023-04-15T06:56:23.691Z,48.97
2023-04-15T06:58:51.412Z,48.65
2023-04-15T07:01:20.007Z,48.52
2023-04-15T07:03:48.017Z,48.36
2023-04-15T07:06:15.922Z,47.98
2023-04-15T07:08:43.894Z,48.10
2023-04-15T07:11:11.784Z,47.63
2023-04-15T07:13:39.358Z,47.66
2023-04-15T07:16:07.524Z,46.98
2023-04-15T07:18:35.234Z,47.56
2023-04-15T07:21:03.165Z,47.86
2023-04-15T07:23:30.783Z,48.05
2023-04-15T07:25:58.737Z,49.42
2023-04-15T07:28:26.341Z,48.60
2023-04-15T07:30:54.410Z,48.92
2023-04-15T07:33:22.250Z,48.81
2023-04-15T07:35:50.263Z,48.12
2023-04-15T07:38:18.128Z,47.85
2023-04-15T07:40:46.802Z,49.75
2023-04-15T07:43:14.703Z,48.25
2023-04-15T07:45:42.563Z,47.98
2023-04-15T07:48:10.081Z,48.25
2023-04-15T07:50:38.387Z,47.66
2023-04-15T07:53:06.799Z,47.12
2023-04-15T07:55:34.644Z,46.60
2023-04-15T07:58:02.254Z,45.88
2023-04-15T08:00:31.067Z,44.86
2023-04-15T08:03:00.073Z,45.74
2023-04-15T08:05:28.129Z,45.61
2023-04-15T08:07:55.689Z,45.43
2023-04-15T08:10:23.665Z,43.92
2023-04-15T08:12:54.709Z,42.22
2023-04-15T08:15:22.688Z,42.74
2023-04-15T08:17:50.676Z,42.28
2023-04-15T08:20:19.165Z,41.65
2023-04-15T08:22:52.256Z,43.09
2023-04-15T08:25:20.502Z,41.54
2023-04-15T08:27:48.205Z,39.98
2023-04-15T08:30:16.583Z,39.65
2023-04-15T08:32:47.521Z,40.05
2023-04-15T08:35:15.853Z,39.46
2023-04-15T08:37:43.419Z,39.31
2023-04-15T08:40:11.639Z,39.27
2023-04-15T08:42:43.667Z,39.42
2023-04-15T08:45:12.889Z,39.87
2023-04-15T08:47:40.721Z,39.69
2023-04-15T08:50:09.694Z,38.82
2023-04-15T08:52:37.658Z,39.95
2023-04-15T08:55:06.251Z,40.45
2023-04-15T08:57:34.053Z,39.65
2023-04-15T09:00:05.277Z,39.12
2023-04-15T09:02:33.915Z,39.66
2023-04-15T09:05:05.180Z,39.98
2023-04-15T09:07:34.490Z,40.23
2023-04-15T09:10:03.762Z,39.44
2023-04-15T09:12:31.846Z,38.99
2023-04-15T09:14:59.755Z,37.53
2023-04-15T09:17:28.154Z,37.77
2023-04-15T09:20:13.286Z,37.31
2023-04-15T09:22:41.776Z,36.08
2023-04-15T09:25:18.707Z,36.44
2023-04-15T09:27:50.602Z,37.78
2023-04-15T09:30:18.624Z,35.93
2023-04-15T09:32:59.341Z,34.88
2023-04-15T09:35:27.926Z,34.26
2023-04-15T09:38:03.301Z,34.71
2023-04-15T09:40:35.493Z,34.17
2023-04-15T09:43:03.987Z,35.69
2023-04-15T09:45:32.899Z,35.91
2023-04-15T09:48:14.999Z,37.04
2023-04-15T09:50:44.201Z,36.42
2023-04-15T09:53:15.079Z,36.54
2023-04-15T09:55:56.885Z,36.08
2023-04-15T09:58:27.676Z,36.25
2023-04-15T10:00:57.798Z,36.21
2023-04-15T10:03:27.717Z,36.95
2023-04-15T10:05:57.565Z,35.39
2023-04-15T10:08:26.327Z,34.77
2023-04-15T10:10:54.859Z,33.97
2023-04-15T10:13:24.479Z,35.10
2023-04-15T10:15:58.635Z,35.87
2023-04-15T10:18:27.437Z,36.67
2023-04-15T10:20:55.816Z,36.58
2023-04-15T10:23:24.612Z,34.59
2023-04-15T10:25:56.585Z,34.72
2023-04-15T10:28:25.119Z,35.19
2023-04-15T10:30:53.782Z,35.27
2023-04-15T10:33:23.096Z,36.10
2023-04-15T10:35:52.208Z,34.18
2023-04-15T10:38:35.179Z,32.66
2023-04-15T10:41:17.092Z,31.52
2023-04-15T10:43:48.359Z,30.80
2023-04-15T10:46:23.994Z,31.21
2023-04-15T10:48:53.035Z,31.54
2023-04-15T10:51:28.619Z,32.60
2023-04-15T10:54:00.965Z,32.84
2023-04-15T10:56:30.480Z,32.45
2023-04-15T10:59:01.864Z,32.72
2023-04-15T11:01:48.355Z,32.65
2023-04-15T11:04:36.434Z,33.52
2023-04-15T11:07:07.666Z,33.29
2023-04-15T11:09:35.297Z,32.74
2023-04-15T11:12:09.974Z,32.32
2023-04-15T11:14:42.296Z,32.78
2023-04-15T11:17:10.321Z,31.56
2023-04-15T11:19:39.247Z,31.78
2023-04-15T11:22:08.348Z,31.51
2023-04-15T11:24:36.703Z,31.01
2023-04-15T11:27:04.888Z,31.85
2023-04-15T11:29:32.583Z,32.41
2023-04-15T11:32:10.265Z,33.03
2023-04-15T11:34:38.003Z,32.44
2023-04-15T11:37:06.896Z,30.74
2023-04-15T11:39:35.097Z,31.71
2023-04-15T11:42:03.145Z,31.94
2023-04-15T11:44:30.724Z,32.22
2023-04-15T11:46:58.668Z,31.24
2023-04-15T11:49:27.359Z,30.45
2023-04-15T11:51:55.309Z,30.36
2023-04-15T11:54:22.938Z,29.59
2023-04-15T11:56:52.165Z,29.37
2023-04-15T11:59:19.796Z,29.37
2023-04-15T12:01:47.926Z,30.46
2023-04-15T12:04:18.579Z,28.85
2023-04-15T12:06:47.506Z,30.54
2023-04-15T12:09:16.806Z,29.53
2023-04-15T12:11:47.606Z,30.01
2023-04-15T12:14:25.855Z,29.05
2023-04-15T12:16:55.324Z,28.18
2023-04-15T12:19:27.727Z,28.90
2023-04-15T12:22:01.020Z,30.11
2023-04-15T12:24:31.534Z,29.29
2023-04-15T12:27:02.889Z,29.17
2023-04-15T12:29:31.013Z,28.11
2023-04-15T12:32:04.397Z,27.33
2023-04-15T12:34:33.197Z,27.21
2023-04-15T12:37:02.636Z,27.14
2023-04-15T12:39:31.530Z,27.81
2023-04-15T12:42:00.705Z,27.86
2023-04-15T12:44:28.631Z,28.61
2023-04-15T12:46:57.095Z,28.04
2023-04-15T12:49:25.098Z,27.84
2023-04-15T12:51:54.189Z,27.46
2023-04-15T12:54:22.256Z,26.50
2023-04-15T12:56:51.181Z,25.83
2023-04-15T12:59:19.028Z,26.61
2023-04-15T13:01:48.215Z,26.48
2023-04-15T13:04:16.600Z,26.48
2023-04-15T13:06:44.704Z,26.54
2023-04-15T13:09:12.393Z,26.34
2023-04-15T13:11:40.441Z,26.58
2023-04-15T13:14:08.679Z,27.81
2023-04-15T13:16:37.137Z,29.07
2023-04-15T13:19:05.089Z,30.11
2023-04-15T13:21:35.910Z,29.65
2023-04-15T13:24:05.190Z,28.79
2023-04-15T13:26:33.982Z,29.00
2023-04-15T13:29:02.089Z,29.13
2023-04-15T13:31:30.399Z,28.77
2023-04-15T13:33:58.101Z,28.88
2023-04-15T13:36:26.936Z,28.22
2023-04-15T13:38:54.717Z,28.59
2023-04-15T13:41:22.573Z,28.19
2023-04-15T13:43:50.099Z,28.93
2023-04-15T13:46:18.124Z,30.17
2023-04-15T13:48:45.832Z,30.23
2023-04-15T13:51:13.770Z,30.53
2023-04-15T13:53:41.499Z,31.22
2023-04-15T13:56:09.704Z,30.96
2023-04-15T13:58:37.866Z,30.55
2023-04-15T14:01:07.243Z,32.24
2023-04-15T14:03:36.278Z,31.66
2023-04-15T14:06:05.211Z,30.91
2023-04-15T14:08:33.196Z,29.79
2023-04-15T14:11:01.455Z,30.46
2023-04-15T14:13:29.308Z,30.41
2023-04-15T14:15:57.743Z,30.90
2023-04-15T14:18:25.532Z,30.50
2023-04-15T14:20:53.659Z,30.12
2023-04-15T14:23:21.487Z,30.66
2023-04-15T14:25:50.616Z,30.57
2023-04-15T14:28:20.275Z,30.61
2023-04-15T14:30:48.215Z,29.95
2023-04-15T14:33:16.429Z,30.43
2023-04-15T14:35:44.425Z,29.95
2023-04-15T14:38:12.015Z,30.96
2023-04-15T14:40:41.313Z,31.44
2023-04-15T14:43:08.958Z,31.79
2023-04-15T14:45:39.480Z,32.12
2023-04-15T14:48:10.152Z,31.56
2023-04-15T14:50:38.372Z,30.91
2023-04-15T14:53:06.176Z,31.23
2023-04-15T14:55:34.226Z,30.85
2023-04-15T14:58:02.662Z,31.67
2023-04-15T15:00:30.995Z,31.82
2023-04-15T15:02:58.874Z,31.03
2023-04-15T15:05:27.042Z,30.25
2023-04-15T15:07:54.819Z,30.34
2023-04-15T15:10:30.710Z,30.02
2023-04-15T15:13:10.917Z,31.48
2023-04-15T15:15:39.556Z,31.70
2023-04-15T15:18:07.240Z,32.07
2023-04-15T15:20:36.287Z,31.84
2023-04-15T15:23:03.881Z,31.85
2023-04-15T15:25:31.884Z,31.66
2023-04-15T15:27:59.572Z,31.73
2023-04-15T15:30:27.494Z,30.51
2023-04-15T15:32:55.195Z,30.43
2023-04-15T15:35:23.921Z,30.86
2023-04-15T15:37:51.781Z,31.05
2023-04-15T15:40:19.714Z,30.92
2023-04-15T15:42:50.201Z,30.39
2023-04-15T15:45:18.586Z,29.11
2023-04-15T15:47:46.426Z,28.84
2023-04-15T15:50:14.730Z,28.44
2023-04-15T15:52:42.433Z,29.41
2023-04-15T15:55:10.516Z,28.69
2023-04-15T15:57:38.228Z,28.57
2023-04-15T16:03:04.308Z,29.27
2023-04-15T16:05:25.120Z,30.24
2023-04-15T16:07:52.888Z,31.21
2023-04-15T16:10:20.961Z,31.66
2023-04-15T16:12:48.617Z,31.84
2023-04-15T16:15:16.682Z,31.84
2023-04-15T16:17:44.540Z,31.66
2023-04-15T16:20:12.565Z,31.09
2023-04-15T16:22:40.273Z,31.36
2023-04-15T16:25:08.533Z,31.50
2023-04-15T16:27:54.141Z,31.52
2023-04-15T16:30:25.132Z,31.88
2023-04-15T16:32:53.218Z,31.83
2023-04-15T16:35:21.260Z,31.62
2023-04-15T16:37:48.896Z,31.93
2023-04-15T16:40:17.146Z,31.82
2023-04-15T16:42:44.940Z,31.95
2023-04-15T16:45:12.927Z,32.00
2023-04-15T16:47:40.632Z,32.74
2023-04-15T16:50:09.394Z,33.12
2023-04-15T16:52:37.135Z,34.61
2023-04-15T16:55:05.434Z,35.11
2023-04-15T16:57:57.889Z,35.28
2023-04-15T17:00:21.422Z,35.51
2023-04-15T17:02:49.382Z,35.35
2023-04-15T17:05:18.121Z,35.95
2023-04-15T17:07:46.034Z,36.08
2023-04-15T17:10:14.289Z,36.40
2023-04-15T17:12:42.225Z,36.70
2023-04-15T17:15:11.003Z,36.81
2023-04-15T17:17:39.495Z,37.04
2023-04-15T17:20:07.956Z,37.49
2023-04-15T17:22:35.687Z,38.38
2023-04-15T17:25:04.836Z,39.65
2023-04-15T17:27:32.574Z,41.29
2023-04-15T17:30:00.634Z,41.67
2023-04-15T17:32:34.755Z,42.18
2023-04-15T17:35:08.672Z,42.89
2023-04-15T17:37:36.410Z,42.32
2023-04-15T17:40:06.734Z,42.57
2023-04-15T17:42:36.591Z,42.81
2023-04-15T17:45:04.682Z,42.95
2023-04-15T17:47:32.639Z,42.47
2023-04-15T17:50:00.869Z,42.95
2023-04-15T17:52:28.657Z,42.79
2023-04-15T17:54:56.912Z,43.04
2023-04-15T17:57:25.626Z,42.21
2023-04-15T17:59:54.431Z,42.10
2023-04-15T18:02:22.236Z,42.90
2023-04-15T18:04:50.779Z,43.06
2023-04-15T18:07:18.706Z,43.34
2023-04-15T18:09:46.855Z,43.61
2023-04-15T18:12:14.669Z,43.71
2023-04-15T18:14:42.862Z,43.47
2023-04-15T18:17:11.392Z,44.18
2023-04-15T18:19:39.387Z,44.51
2023-04-15T18:22:07.290Z,44.49
2023-04-15T18:24:35.586Z,43.47
2023-04-15T18:27:04.159Z,43.77
2023-04-15T18:29:32.962Z,43.69
2023-04-15T18:32:03.155Z,43.63
2023-04-15T18:34:31.279Z,43.12
2023-04-15T18:36:59.140Z,43.16
2023-04-15T18:39:27.755Z,43.09
2023-04-15T18:41:56.612Z,43.78
2023-04-15T18:44:24.880Z,43.69
2023-04-15T18:46:52.781Z,44.03
2023-04-15T18:49:21.124Z,44.19
2023-04-15T18:51:48.728Z,44.34
2023-04-15T18:54:16.998Z,44.41
2023-04-15T18:56:44.929Z,44.82
2023-04-15T18:59:29.167Z,44.98
2023-04-15T19:01:59.311Z,44.63
2023-04-15T19:04:29.460Z,44.54
2023-04-15T19:06:59.227Z,44.24
2023-04-15T19:09:28.598Z,44.17
2023-04-15T19:11:57.905Z,44.42
2023-04-15T19:14:26.453Z,44.01
2023-04-15T19:16:54.250Z,44.02
2023-04-15T19:19:22.467Z,44.23
2023-04-15T19:21:50.525Z,44.10
2023-04-15T19:24:18.934Z,43.94
2023-04-15T19:26:53.094Z,43.82
2023-04-15T19:29:23.116Z,43.50
2023-04-15T19:31:51.373Z,44.10
2023-04-15T19:34:19.651Z,43.81
2023-04-15T19:36:47.575Z,43.69
2023-04-15T19:39:16.492Z,43.42
2023-04-15T19:41:44.508Z,43.07
2023-04-15T19:44:15.337Z,42.92
2023-04-15T19:46:45.067Z,42.43
2023-04-15T19:49:12.917Z,42.37
2023-04-15T19:51:41.104Z,42.68
2023-04-15T19:54:09.000Z,42.87
2023-04-15T19:56:36.621Z,42.93
2023-04-15T19:59:05.352Z,42.89
2023-04-15T20:01:33.270Z,42.89
2023-04-15T20:04:03.580Z,42.63
2023-04-15T20:06:31.846Z,42.89
2023-04-15T20:08:59.815Z,42.70
2023-04-15T20:12:46.625Z,42.68
2023-04-15T20:14:18.384Z,42.40
2023-04-15T20:16:46.243Z,43.54
2023-04-15T20:19:14.826Z,42.90
2023-04-15T20:21:42.599Z,43.01
2023-04-15T20:24:11.057Z,43.06
2023-04-15T20:26:38.612Z,41.96
2023-04-15T20:29:06.674Z,42.65
2023-04-15T20:31:34.408Z,42.78
2023-04-15T20:34:02.287Z,42.91
2023-04-15T20:36:30.049Z,42.82
2023-04-15T20:38:57.910Z,42.69
2023-04-15T20:41:25.825Z,42.67
2023-04-15T20:43:53.769Z,42.96
2023-04-15T20:46:22.148Z,43.23
2023-04-15T20:48:50.690Z,43.11
2023-04-15T20:51:18.216Z,42.63
2023-04-15T20:53:46.113Z,43.14
2023-04-15T20:56:13.629Z,42.95
2023-04-15T20:58:41.573Z,42.71
2023-04-15T21:01:09.293Z,42.52
2023-04-15T21:03:37.507Z,42.82
2023-04-15T21:06:05.234Z,42.58
2023-04-15T21:08:33.164Z,43.17
2023-04-15T21:11:00.814Z,43.29
2023-04-15T21:13:28.665Z,42.92
2023-04-15T21:15:56.200Z,43.39
2023-04-15T21:18:24.100Z,43.48
2023-04-15T21:20:58.301Z,43.77
2023-04-15T21:23:26.527Z,43.27
2023-04-15T21:25:54.058Z,43.14
2023-04-15T21:28:22.254Z,43.89
2023-04-15T21:30:49.931Z,43.29
2023-04-15T21:33:18.107Z,43.19
2023-04-15T21:35:45.604Z,43.63
2023-04-15T21:38:13.546Z,43.36
2023-04-15T21:40:41.498Z,43.29
2023-04-15T21:43:09.724Z,43.61
2023-04-15T21:45:39.799Z,43.42
2023-04-15T21:48:08.511Z,43.36
2023-04-15T21:50:36.830Z,43.58
2023-04-15T21:53:05.019Z,43.70
2023-04-15T21:55:32.536Z,44.10
2023-04-15T21:58:00.529Z,43.71
2023-04-15T22:00:28.165Z,43.98
2023-04-15T22:02:56.179Z,43.50
2023-04-15T22:05:23.784Z,43.57
2023-04-15T22:07:51.763Z,44.44
2023-04-15T22:10:21.269Z,44.37
2023-04-15T22:12:49.108Z,44.73
2023-04-15T22:15:17.180Z,44.81
2023-04-15T22:17:45.580Z,44.16
2023-04-15T22:20:13.547Z,44.44
2023-04-15T22:22:44.398Z,43.88
2023-04-15T22:25:12.758Z,44.23
2023-04-15T22:27:41.030Z,44.16
2023-04-15T22:30:08.859Z,44.23
2023-04-15T22:32:37.196Z,45.01
2023-04-15T22:35:06.714Z,44.98
2023-04-15T22:37:34.612Z,44.47
2023-04-15T22:40:02.738Z,44.83
2023-04-15T22:42:30.601Z,44.79
2023-04-15T22:44:58.082Z,44.52
2023-04-15T22:47:26.034Z,44.46
2023-04-15T22:49:53.621Z,44.13
2023-04-15T22:52:30.061Z,44.70
2023-04-15T22:54:58.959Z,44.40
2023-04-15T22:57:28.028Z,44.17
2023-04-15T22:59:55.632Z,44.37
2023-04-15T23:02:23.608Z,43.95
2023-04-15T23:04:51.358Z,44.39
2023-04-15T23:07:19.389Z,44.56
2023-04-15T23:09:46.965Z,44.57
2023-04-15T23:12:14.890Z,44.97
2023-04-15T23:14:42.491Z,45.13
2023-04-15T23:17:10.525Z,45.04
2023-04-15T23:19:38.106Z,45.00
2023-04-15T23:22:07.492Z,45.07
2023-04-15T23:24:35.042Z,45.28
2023-04-15T23:27:02.938Z,45.59
2023-04-15T23:29:30.544Z,45.55
2023-04-15T23:31:58.557Z,45.35
2023-04-15T23:34:26.483Z,46.03
2023-04-15T23:36:54.389Z,45.93
2023-04-15T23:39:21.994Z,45.96
2023-04-15T23:41:49.886Z,45.86
2023-04-15T23:44:17.413Z,46.19
2023-04-15T23:46:45.257Z,45.73
2023-04-15T23:49:12.924Z,46.76
2023-04-15T23:51:41.124Z,47.72
2023-04-15T23:54:08.731Z,47.29
2023-04-15T23:56:36.829Z,47.50
2023-04-15T23:59:04.454Z,47.37
